Latest Coastal Weather Observations for Broome Port

IDW60701

Issued at 7:42 am WST Friday 27 March 2015 (issued every 10 minutes, with the page automatically refreshed every 10 minutes)

About coastal observations | Map of coastal stations | Coastal observations for WA | Marine services | Other Formats
Station Details ID: 003102 Name: BROOME NTC AWS Lat: -18.00 Lon: 122.22 Height: 0.0 m
Data from the previous 72 hours. | See also: Recent months for locations in Western Australia
Date/Time
WST
Temp

°C
Wind Pressure Rain
since 9am
mm
Weather Cloud Vis
km
Sea
Height
m
Swell
Dir
 
Speed
knots
Gust
knots
hPa Trend Height
m
Period
s
Dir
27/07:30am 28.8 ESE 13 16 1012.8 - - - - - - - - -
27/07:00am 28.6 E 14 16 1012.4 - - - - - - - - -
27/06:30am 28.4 ESE 14 17 1012.2 - - - - - - - - -
27/06:00am 28.6 E 14 16 1012.0 - - - - - - - - -
27/05:30am 28.9 ESE 13 16 1011.6 - - - - - - - - -
27/05:00am 28.7 ESE 10 12 1011.6 - - - - - - - - -
27/04:30am 28.6 E 9 11 1011.3 - - - - - - - - -
27/04:00am 29.1 E 7 9 1011.2 - - - - - - - - -
27/03:30am 29.2 E 9 11 1011.2 - - - - - - - - -
27/03:00am 29.6 E 8 9 1011.1 - - - - - - - - -
27/02:30am 29.8 E 9 10 1011.2 - - - - - - - - -
27/02:00am 30.1 E 10 11 1011.4 - - - - - - - - -
27/01:30am 30.5 E 10 12 1011.4 - - - - - - - - -
27/01:00am 30.6 E 10 12 1011.5 - - - - - - - - -
27/12:30am 30.7 E 10 12 1011.6 - - - - - - - - -
27/12:00am 30.8 E 11 13 1011.6 - - - - - - - - -
 
Date/Time
WST
Temp

°C
Wind Pressure Rain
since 9am
mm
Weather Cloud Vis
km
Sea
Height
m
Swell
Dir
 
Speed
knots
Gust
knots
hPa Trend Height
m
Period
s
Dir
26/11:30pm 31.5 E 11 14 1011.6 - - - - - - - - -
26/11:00pm 32.1 SE 8 9 1011.9 - - - - - - - - -
26/10:30pm 32.4 ENE 6 7 1011.6 - - - - - - - - -
26/10:00pm 31.8 NNE 2 4 1011.7 - - - - - - - - -
26/09:30pm 31.9 CALM 0 1 1011.7 - - - - - - - - -
26/09:00pm 32.0 NNW 2 3 1011.6 - - - - - - - - -
26/08:30pm 33.1 SSE 7 8 1011.4 - - - - - - - - -
26/08:00pm 34.0 SSE 9 10 1011.2 - - - - - - - - -
26/07:30pm 33.9 SE 10 11 1010.8 - - - - - - - - -
26/07:00pm 34.2 SE 10 11 1010.3 - - - - - - - - -
26/06:30pm 35.6 SE 12 13 1009.9 - - - - - - - - -
26/06:00pm 36.2 SE 13 14 1009.6 - - - - - - - - -
26/05:30pm 34.9 SE 12 14 1009.2 - - - - - - - - -
26/05:00pm 35.9 SE 14 15 1008.9 - - - - - - - - -
26/04:30pm 36.1 SE 11 13 1008.6 - - - - - - - - -
26/04:00pm 35.9 ESE 8 12 1008.6 - - - - - - - - -
26/03:30pm 35.5 S 4 5 1008.5 - - - - - - - - -
26/03:00pm 35.2 SE 3 5 1008.6 - - - - - - - - -
26/02:30pm 35.1 SE 3 4 1008.8 - - - - - - - - -
26/02:00pm 34.6 SSE 2 4 1009.1 - - - - - - - - -
26/01:30pm 34.5 SSW 2 4 1009.4 - - - - - - - - -
26/01:00pm 35.7 W 1 3 1009.8 - - - - - - - - -
26/12:30pm 35.4 SW 1 3 1010.3 - - - - - - - - -
26/12:00pm 35.1 SSW 1 2 1010.7 - - - - - - - - -
26/11:30am 34.2 W 1 3 1011.2 - - - - - - - - -
26/11:00am 33.5 WSW 1 3 1011.4 - - - - - - - - -
26/10:30am 33.0 WSW 1 3 1011.8 - - - - - - - - -
26/10:00am 31.8 WSW 1 3 1012.0 - - - - - - - - -
26/09:30am 31.2 W 1 4 1012.1 - - - - - - - - -
26/09:00am 30.6 WSW 1 4 1012.1 - - - - - - - - -
26/08:30am 30.1 WSW 1 7 1012.1 - - - - - - - - -
26/08:00am 30.1 WSW 2 4 1012.0 - - - - - - - - -
26/07:30am 30.6 NNW 3 6 1011.8 - - - - - - - - -
26/07:00am 29.6 SSW 1 3 1011.6 - - - - - - - - -
26/06:30am 29.4 SSW 3 4 1011.2 - - - - - - - - -
26/06:00am 29.4 SW 4 5 1011.0 - - - - - - - - -
26/05:30am 29.4 SW 2 5 1010.9 - - - - - - - - -
26/05:00am 30.0 WSW 4 6 1010.5 - - - - - - - - -
26/04:30am 30.0 WSW 3 4 1010.4 - - - - - - - - -
26/04:00am 29.7 W 2 4 1010.1 - - - - - - - - -
26/03:30am 29.7 WNW 2 4 1010.0 - - - - - - - - -
26/03:00am 29.7 WNW 3 5 1010.0 - - - - - - - - -
26/02:30am 29.7 WNW 3 5 1010.0 - - - - - - - - -
26/02:00am 29.8 NW 6 7 1009.9 - - - - - - - - -
26/01:30am 29.7 NW 7 9 1009.8 - - - - - - - - -
26/01:00am 29.7 NW 8 9 1009.9 - - - - - - - - -
26/12:30am 29.7 NW 8 9 1010.2 - - - - - - - - -
26/12:00am 29.7 NW 7 8 1010.4 - - - - - - - - -
 
Date/Time
WST
Temp

°C
Wind Pressure Rain
since 9am
mm
Weather Cloud Vis
km
Sea
Height
m
Swell
Dir
 
Speed
knots
Gust
knots
hPa Trend Height
m
Period
s
Dir
25/11:30pm 29.4 NNW 6 7 1010.8 - - - - - - - - -
25/11:00pm 29.0 N 7 8 1010.9 - - - - - - - - -
25/10:30pm 28.9 NNE 7 8 1011.0 - - - - - - - - -
25/10:00pm 29.6 NNE 5 6 1011.1 - - - - - - - - -
25/09:30pm 30.1 NNW 4 5 1010.9 - - - - - - - - -
25/09:00pm 31.3 WSW 8 10 1010.7 - - - - - - - - -
25/08:30pm 31.1 WSW 8 9 1010.4 - - - - - - - - -
25/08:00pm 31.1 WSW 8 10 1010.1 - - - - - - - - -
25/07:30pm 31.0 W 7 9 1009.7 - - - - - - - - -
25/07:00pm 31.4 W 7 9 1009.5 - - - - - - - - -
25/06:30pm 31.4 W 5 7 1009.2 - - - - - - - - -
25/06:00pm 31.2 W 8 10 1008.8 - - - - - - - - -
25/05:30pm 31.6 WSW 9 12 1008.5 - - - - - - - - -
25/05:00pm 31.9 WSW 10 12 1008.5 - - - - - - - - -
25/04:30pm 32.0 WSW 10 11 1008.4 - - - - - - - - -
25/04:00pm 32.6 WSW 8 10 1008.3 - - - - - - - - -
25/03:30pm 32.5 WSW 8 10 1008.2 - - - - - - - - -
25/03:00pm 34.5 WSW 4 5 1008.2 - - - - - - - - -
25/02:30pm 33.7 SW 4 5 1008.2 - - - - - - - - -
25/02:00pm 33.3 SW 4 5 1008.3 - - - - - - - - -
25/01:30pm 32.7 SW 2 3 1008.6 - - - - - - - - -
25/01:00pm 32.5 SSW 2 3 1009.0 - - - - - - - - -
25/12:30pm 32.2 SW 4 5 1009.6 - - - - - - - - -
25/12:00pm 32.6 W 1 3 1009.8 - - - - - - - - -
25/11:30am 31.3 ENE 2 3 1010.3 - - - - - - - - -
25/11:00am 30.6 ESE 4 5 1010.7 - - - - - - - - -
25/10:30am 30.2 ESE 8 11 1011.1 - - - - - - - - -
25/10:00am 30.3 SE 11 13 1011.5 - - - - - - - - -
25/09:30am 29.9 SE 12 14 1011.8 - - - - - - - - -
25/09:00am 29.1 SE 12 14 1011.8 - - - - - - - - -
25/08:30am 28.8 SE 13 15 1011.8 - - - - - - - - -
25/08:00am 28.1 SSE 12 15 1011.6 - - - - - - - - -
25/07:30am 28.2 SSE 12 16 1011.7 - - - - - - - - -
25/07:00am 28.1 SSE 13 15 1011.3 - - - - - - - - -
25/06:30am 28.6 SE 13 17 1010.7 - - - - - - - - -
25/06:00am 28.8 SSE 11 14 1010.4 - - - - - - - - -
25/05:30am 28.9 SE 10 11 1010.3 - - - - - - - - -
25/05:00am 29.3 SE 11 13 1010.2 - - - - - - - - -
25/04:30am 29.6 SE 10 12 1009.9 - - - - - - - - -
25/04:00am 29.8 SSE 11 13 1009.7 - - - - - - - - -
25/03:30am 29.7 SE 12 15 1009.7 - - - - - - - - -
25/03:00am 29.6 SSE 13 15 1009.6 - - - - - - - - -
25/02:30am 29.8 SE 12 15 1009.8 - - - - - - - - -
25/02:00am 29.9 SSE 11 13 1009.6 - - - - - - - - -
25/01:30am 30.0 SSE 13 16 1009.6 - - - - - - - - -
25/01:00am 30.3 SSE 13 15 1009.8 - - - - - - - - -
25/12:30am 30.4 SSE 13 16 1009.7 - - - - - - - - -
25/12:00am 30.6 SSE 14 16 1010.1 - - - - - - - - -
 
Date/Time
WST
Temp

°C
Wind Pressure Rain
since 9am
mm
Weather Cloud Vis
km
Sea
Height
m
Swell
Dir
 
Speed
knots
Gust
knots
hPa Trend Height
m
Period
s
Dir
24/11:30pm 30.7 SSE 13 16 1010.2 - - - - - - - - -
24/11:00pm 30.8 SSE 15 19 1010.1 - - - - - - - - -
24/10:30pm 30.8 SSE 16 18 1010.0 - - - - - - - - -
24/10:00pm 30.6 S 15 17 1010.0 - - - - - - - - -
24/09:30pm 30.9 SSE 14 16 1010.3 - - - - - - - - -
24/09:00pm 31.2 SSE 15 17 1010.3 - - - - - - - - -
24/08:30pm 31.4 SSE 15 17 1010.3 - - - - - - - - -
24/08:00pm 31.6 SSE 13 15 1010.1 - - - - - - - - -
24/07:30pm 31.6 SSE 12 14 1009.8 - - - - - - - - -
24/07:00pm 31.9 SSE 12 13 1009.4 - - - - - - - - -
24/06:30pm 31.9 SSE 12 13 1008.9 - - - - - - - - -
24/06:00pm 32.1 SSE 12 13 1008.6 - - - - - - - - -
24/05:30pm 31.9 SSE 11 13 1008.3 - - - - - - - - -
24/05:00pm 32.1 SSE 13 14 1008.1 - - - - - - - - -
24/04:30pm 32.3 SSE 14 15 1008.0 - - - - - - - - -
24/04:00pm 32.5 SSE 13 15 1007.9 - - - - - - - - -
24/03:30pm 32.3 SSE 15 18 1008.2 - - - - - - - - -
24/03:00pm 32.1 SSE 17 20 1008.1 - - - - - - - - -
24/02:30pm 31.6 SSE 16 19 1008.4 - - - - - - - - -
24/02:00pm 31.2 SSE 16 18 1008.7 - - - - - - - - -
24/01:30pm 30.9 S 12 15 1009.2 - - - - - - - - -
24/01:00pm 30.7 S 12 15 1009.7 - - - - - - - - -
24/12:30pm 30.9 S 15 19 1009.9 - - - - - - - - -
24/12:00pm 31.1 S 12 15 1010.4 - - - - - - - - -
24/11:30am 30.6 S 10 13 1010.8 - - - - - - - - -
24/11:00am 30.0 SSE 11 12 1011.3 - - - - - - - - -
24/10:30am 29.4 SE 10 14 1011.8 - - - - - - - - -
24/10:00am 28.6 SSE 8 10 1012.2 - - - - - - - - -
24/09:30am 28.1 SSE 7 9 1012.4 - - - - - - - - -
24/09:00am 27.4 S 6 9 1012.3 - - - - - - - - -
24/08:30am 26.7 S 8 12 1012.1 - - - - - - - - -
24/08:00am 26.8 S 9 12 1011.9 - - - - - - - - -

Other Formats:

Comma delimited format used in spreadsheet applications
http://www.bom.gov.au/fwo/IDW60701/IDW60701.95202.axf

JavaScript Object Notation format (JSON) in row-major order
http://www.bom.gov.au/fwo/IDW60701/IDW60701.95202.json